RJOA

Hiroshima Airport

Hiroshima, Japan
TAF RJOA 252308Z 2600/2706 16006KT 9999 FEW030 BECMG 2610/2612 32004KT
Issued Valid From Valid To
Apr-25 @ 23:08 UTC
(4 hours ago)
Apr-26 @ 00:00 UTC
(3 hours ago)
Apr-27 @ 06:00 UTC
(-1 days ago)
Apr-26 @ 00:00 to Apr-26 @ 10:00
TAF RJOA 252308Z 2600/2706 16006KT 9999 FEW030
Wind Visibility Clouds
160° at 6 knots 10,000+ meters
  • Few at 3,000' AGL
Becoming Apr-26 @ 10:00 to Apr-27 @ 06:00
BECMG 2610/2612 32004KT
Wind Visibility Clouds
320° at 4 knots 10,000+ meters
  • Few at 3,000' AGL
TAF RJOA 252308Z 2600/2706 16006KT 9999 FEW030 BECMG 2610/2612 32004KT
Issued Apr-25 @ 23:08 UTC
(4 hours ago)
Valid From Apr-26 @ 00:00 UTC
(3 hours ago)
Valid To Apr-27 @ 06:00 UTC
(-1 days ago)
Apr-26 @ 00:00 - Apr-26 @ 10:00
Wind Visibility
160° at 6 knots 10,000+ meters
Clouds
  • Few at 3,000' AGL
Becoming Apr-26 @ 10:00 - Apr-27 @ 06:00
Wind Visibility
320° at 4 knots 10,000+ meters
Clouds
  • Few at 3,000' AGL